aviador You're here:

LKKV Decoded Metar

KARLOVY VARY in CZECH REPUBLIC
Report Time2017-08-24 06:30:00
UTC Time2017-08-24 06:58:56
Flight Rules vfr VFR
Wind100° at 02 kt
W.Decomp.*RWY 11: 1.9 kt HW 0.4 kt LCW
W.Rank100° ranks 3
Current wind is below 100° avg. (4.7)
Visibility9999 m
Phenomena:N/A
Clouds:N/A
Expected CloudBase > 1,600 ft AGL from Temp-Dew spread
CeilingNone
Temp14°C (ISA +3)
Dew Point10°C (77% RH)
AAT13.3°C
QNH1017 hPa
Density Alt2,365 ft
Elevation1,982 ft
Report Wrong Elevation
Raw Report
METAR LKKV 240630Z 10002KT CAVOK 14/10 Q1017=

Extra information for LKKV:More info

Metar Taf Metar & Taf Last 4 Metars F.Rules Stats Wind Profile Meteogram Temp Stats Airport Information Weather charts Add Link Nearby VenuesMetar ALERT Operation Metar Decoded Social comments